createdAt,value
2023-05-01T00:03:39.262Z,3.20
2023-05-01T00:07:41.400Z,3.30
2023-05-01T00:11:43.417Z,2.98
2023-05-01T00:15:45.551Z,3.19
2023-05-01T00:19:51.268Z,3.10
2023-05-01T00:23:53.516Z,3.05
2023-05-01T00:27:55.577Z,3.02
2023-05-01T00:31:57.890Z,2.92
2023-05-01T00:35:59.950Z,2.68
2023-05-01T00:40:02.063Z,2.79
2023-05-01T00:44:04.486Z,2.75
2023-05-01T00:48:06.732Z,2.74
2023-05-01T00:52:10.005Z,2.69
2023-05-01T00:56:12.580Z,2.61
2023-05-01T01:00:14.885Z,2.27
2023-05-01T01:04:17.080Z,2.27
2023-05-01T01:09:07.984Z,2.08
2023-05-01T01:13:20.265Z,2.29
2023-05-01T01:17:35.455Z,2.17
2023-05-01T01:21:44.880Z,2.23
2023-05-01T01:26:03.206Z,2.14
2023-05-01T01:30:23.405Z,2.09
2023-05-01T01:34:28.075Z,2.01
2023-05-01T01:38:42.477Z,1.92
2023-05-01T01:42:53.704Z,1.94
2023-05-01T01:46:56.628Z,1.83
2023-05-01T01:51:01.013Z,1.83
2023-05-01T01:55:08.894Z,1.70
2023-05-01T01:59:11.237Z,1.42
2023-05-01T02:03:15.071Z,1.28
2023-05-01T02:07:20.275Z,1.37
2023-05-01T02:11:25.204Z,1.20
2023-05-01T02:15:30.004Z,1.35
2023-05-01T02:19:34.499Z,1.32
2023-05-01T02:23:38.326Z,1.06
2023-05-01T02:27:57.851Z,1.07
2023-05-01T02:32:01.161Z,0.93
2023-05-01T02:36:05.392Z,1.01
2023-05-01T02:40:09.111Z,0.77
2023-05-01T02:44:13.052Z,0.73
2023-05-01T02:48:18.891Z,0.63
2023-05-01T02:52:22.968Z,0.85
2023-05-01T02:56:31.680Z,0.78
2023-05-01T03:00:34.470Z,0.82
2023-05-01T03:04:36.545Z,0.55
2023-05-01T03:08:38.633Z,0.42
2023-05-01T03:12:40.941Z,0.39
2023-05-01T03:16:43.710Z,0.51
2023-05-01T03:20:53.533Z,0.49
2023-05-01T03:24:55.673Z,0.66
2023-05-01T03:28:58.419Z,0.53
2023-05-01T03:33:01.983Z,0.67
2023-05-01T03:37:06.973Z,0.59
2023-05-01T03:41:10.016Z,0.83
2023-05-01T03:45:31.048Z,0.78
2023-05-01T03:49:33.306Z,0.94
2023-05-01T03:53:36.711Z,1.00
2023-05-01T03:57:41.192Z,1.28
2023-05-01T04:01:44.282Z,1.31
2023-05-01T04:05:46.437Z,1.58
2023-05-01T04:09:48.574Z,1.69
2023-05-01T04:13:50.618Z,1.97
2023-05-01T04:17:55.834Z,2.23
2023-05-01T04:21:58.676Z,2.26
2023-05-01T04:26:01.455Z,2.44
2023-05-01T04:30:03.772Z,2.73
2023-05-01T04:34:06.885Z,3.05
2023-05-01T04:38:11.702Z,3.23
2023-05-01T04:42:15.751Z,3.47
2023-05-01T04:46:17.835Z,3.66
2023-05-01T04:50:20.042Z,4.01
2023-05-01T04:54:23.455Z,4.18
2023-05-01T04:58:25.495Z,4.71
2023-05-01T05:02:33.525Z,4.81
2023-05-01T05:06:35.689Z,4.96
2023-05-01T05:10:38.414Z,5.49
2023-05-01T05:15:12.321Z,5.82
2023-05-01T05:19:14.455Z,6.13
2023-05-01T05:23:17.927Z,6.45
2023-05-01T05:27:20.223Z,6.70
2023-05-01T05:31:23.604Z,6.96
2023-05-01T05:35:26.118Z,7.19
2023-05-01T05:39:28.346Z,7.52
2023-05-01T05:43:30.940Z,7.70
2023-05-01T05:47:33.114Z,7.93
2023-05-01T05:51:35.932Z,8.21
2023-05-01T05:55:38.903Z,8.41
2023-05-01T05:59:41.888Z,8.74
2023-05-01T06:03:44.751Z,8.94
2023-05-01T06:07:47.131Z,8.73
2023-05-01T06:11:49.231Z,8.90
2023-05-01T06:15:52.486Z,9.24
2023-05-01T06:19:55.202Z,9.29
2023-05-01T06:23:57.990Z,9.32
2023-05-01T06:28:22.551Z,9.18
2023-05-01T06:32:24.386Z,9.25
2023-05-01T06:36:26.402Z,9.57
2023-05-01T06:40:28.660Z,9.50
2023-05-01T06:44:32.778Z,9.71
2023-05-01T06:48:36.555Z,10.01
2023-05-01T06:52:38.806Z,10.24
2023-05-01T06:56:42.375Z,10.26
2023-05-01T07:00:44.489Z,10.61
2023-05-01T07:04:46.504Z,10.61
2023-05-01T07:08:49.008Z,10.71
2023-05-01T07:12:51.008Z,10.72
2023-05-01T07:16:53.123Z,11.09
2023-05-01T07:20:55.600Z,11.48
2023-05-01T07:24:57.716Z,11.39
2023-05-01T07:28:59.746Z,11.63
2023-05-01T07:33:01.774Z,11.95
2023-05-01T07:37:05.005Z,12.01
2023-05-01T07:41:07.286Z,12.06
2023-05-01T07:45:09.759Z,12.18
2023-05-01T07:49:11.776Z,12.26
2023-05-01T07:53:13.814Z,12.29
2023-05-01T07:57:15.809Z,12.14
2023-05-01T08:01:17.933Z,12.17
2023-05-01T08:05:19.909Z,12.27
2023-05-01T08:09:22.100Z,12.60
2023-05-01T08:13:24.242Z,12.19
2023-05-01T08:17:26.379Z,12.18
2023-05-01T08:21:28.482Z,12.38
2023-05-01T08:25:31.637Z,12.79
2023-05-01T08:29:34.258Z,12.91
2023-05-01T08:33:35.942Z,12.79
2023-05-01T08:37:38.319Z,12.82
2023-05-01T08:41:40.349Z,12.44
2023-05-01T08:45:42.871Z,12.79
2023-05-01T08:49:45.973Z,13.13
2023-05-01T08:53:50.718Z,13.20
2023-05-01T08:57:53.312Z,13.12
2023-05-01T09:01:56.525Z,13.55
2023-05-01T09:06:00.219Z,13.76
2023-05-01T09:10:02.429Z,13.86
2023-05-01T09:14:08.572Z,13.82
2023-05-01T09:18:11.603Z,13.93
2023-05-01T09:22:13.719Z,13.89
2023-05-01T09:26:15.878Z,14.09
2023-05-01T09:30:37.836Z,14.15
2023-05-01T09:34:39.883Z,14.30
2023-05-01T09:38:43.465Z,14.31
2023-05-01T09:42:53.474Z,14.20
2023-05-01T09:46:55.548Z,14.51
2023-05-01T09:50:57.720Z,14.69
2023-05-01T09:55:13.820Z,14.86
2023-05-01T09:59:20.530Z,14.96
2023-05-01T10:03:22.925Z,15.32
2023-05-01T10:07:25.078Z,15.01
2023-05-01T10:11:27.298Z,15.17
2023-05-01T10:15:38.431Z,15.21
2023-05-01T10:19:40.782Z,15.53
2023-05-01T10:23:42.891Z,15.46
2023-05-01T10:27:45.264Z,15.53
2023-05-01T10:31:47.508Z,15.16
2023-05-01T10:35:58.869Z,15.34
2023-05-01T10:40:00.988Z,15.25
2023-05-01T10:44:23.203Z,15.40
2023-05-01T10:48:40.728Z,15.43
2023-05-01T10:53:15.695Z,15.35
2023-05-01T10:57:47.049Z,16.00
2023-05-01T11:01:51.953Z,16.29
2023-05-01T11:06:00.340Z,16.10
2023-05-01T11:10:02.655Z,16.12
2023-05-01T11:14:06.393Z,16.02
2023-05-01T11:18:08.760Z,15.70
2023-05-01T11:22:14.008Z,16.45
2023-05-01T11:26:16.251Z,16.46
2023-05-01T11:30:18.979Z,16.29
2023-05-01T11:34:21.310Z,16.71
2023-05-01T11:38:23.586Z,16.42
2023-05-01T11:42:25.818Z,16.67
2023-05-01T11:46:32.781Z,16.73
2023-05-01T11:50:37.128Z,16.66
2023-05-01T11:54:48.072Z,16.93
2023-05-01T11:58:50.708Z,16.96
2023-05-01T12:02:57.549Z,17.38
2023-05-01T12:06:59.920Z,17.26
2023-05-01T12:11:02.432Z,17.37
2023-05-01T12:15:05.089Z,17.41
2023-05-01T12:19:07.571Z,17.22
2023-05-01T12:23:12.065Z,17.17
2023-05-01T12:27:14.133Z,17.85
2023-05-01T12:31:16.259Z,17.81
2023-05-01T12:35:18.385Z,17.47
2023-05-01T12:39:23.497Z,17.56
2023-05-01T12:43:34.137Z,17.94
2023-05-01T12:47:37.783Z,17.91
2023-05-01T12:51:39.828Z,17.74
2023-05-01T12:55:50.795Z,17.96
2023-05-01T13:00:01.250Z,18.00
2023-05-01T13:04:03.510Z,18.21
2023-05-01T13:08:06.057Z,18.14
2023-05-01T13:12:09.850Z,17.98
2023-05-01T13:16:16.680Z,18.42
2023-05-01T13:20:26.888Z,18.40
2023-05-01T13:24:55.557Z,18.33
2023-05-01T13:28:58.753Z,18.30
2023-05-01T13:33:01.886Z,18.61
2023-05-01T13:37:04.151Z,18.52
2023-05-01T13:41:06.167Z,18.64
2023-05-01T13:45:08.962Z,18.44
2023-05-01T13:49:11.227Z,18.50
2023-05-01T13:53:14.523Z,18.80
2023-05-01T13:57:17.344Z,18.69
2023-05-01T14:01:21.413Z,18.82
2023-05-01T14:05:30.559Z,18.75
2023-05-01T14:09:39.288Z,18.80
2023-05-01T14:13:45.889Z,18.96
2023-05-01T14:17:49.215Z,18.80
2023-05-01T14:21:52.414Z,18.96
2023-05-01T14:25:54.485Z,18.83
2023-05-01T14:29:56.427Z,19.01
2023-05-01T14:34:00.678Z,19.18
2023-05-01T14:38:14.079Z,19.19
2023-05-01T14:42:16.281Z,19.52
2023-05-01T14:46:27.889Z,19.21
2023-05-01T14:50:31.334Z,19.07
2023-05-01T14:54:44.161Z,19.13
2023-05-01T14:58:47.187Z,18.96
2023-05-01T15:02:49.611Z,18.96
2023-05-01T15:06:52.222Z,19.03
2023-05-01T15:10:54.304Z,18.88
2023-05-01T15:14:56.497Z,18.74
2023-05-01T15:18:58.679Z,18.66
2023-05-01T15:23:00.835Z,18.52
2023-05-01T15:27:03.158Z,18.38
2023-05-01T15:31:06.351Z,18.24
2023-05-01T15:35:09.227Z,18.46
2023-05-01T15:39:12.008Z,19.78
2023-05-01T15:43:13.946Z,20.89
2023-05-01T15:47:16.428Z,21.65
2023-05-01T15:51:19.671Z,21.71
2023-05-01T15:55:22.014Z,20.27
2023-05-01T15:59:24.855Z,19.53
2023-05-01T16:03:27.037Z,18.81
2023-05-01T16:07:29.599Z,18.17
2023-05-01T16:11:32.561Z,17.71
2023-05-01T16:15:36.333Z,17.51
2023-05-01T16:19:39.177Z,17.29
2023-05-01T16:23:41.953Z,17.03
2023-05-01T16:27:45.858Z,16.73
2023-05-01T16:31:48.012Z,16.57
2023-05-01T16:35:50.232Z,16.54
2023-05-01T16:39:52.648Z,16.59
2023-05-01T16:43:59.326Z,16.40
2023-05-01T16:48:01.312Z,16.15
2023-05-01T16:52:04.463Z,16.09
2023-05-01T16:56:08.999Z,16.09
2023-05-01T17:00:11.681Z,16.02
2023-05-01T17:04:15.086Z,15.74
2023-05-01T17:08:17.349Z,15.55
2023-05-01T17:12:19.375Z,15.34
2023-05-01T17:16:21.807Z,15.12
2023-05-01T17:20:23.826Z,15.00
2023-05-01T17:24:26.958Z,14.72
2023-05-01T17:28:29.023Z,14.51
2023-05-01T17:32:36.911Z,14.27
2023-05-01T17:36:39.182Z,13.97
2023-05-01T17:40:41.364Z,13.84
2023-05-01T17:44:43.356Z,13.62
2023-05-01T17:48:45.564Z,13.51
2023-05-01T17:52:47.832Z,13.38
2023-05-01T17:56:49.925Z,13.19
2023-05-01T18:00:51.961Z,13.06
2023-05-01T18:04:55.229Z,12.79
2023-05-01T18:08:57.524Z,12.51
2023-05-01T18:12:59.731Z,12.29
2023-05-01T18:17:01.813Z,12.08
2023-05-01T18:21:04.078Z,11.81
2023-05-01T18:25:06.762Z,11.68
2023-05-01T18:29:08.808Z,11.56
2023-05-01T18:33:12.060Z,11.41
2023-05-01T18:37:14.816Z,11.19
2023-05-01T18:41:16.753Z,11.03
2023-05-01T18:45:18.982Z,10.90
2023-05-01T18:49:23.882Z,10.78
2023-05-01T18:53:26.084Z,10.74
2023-05-01T18:57:28.663Z,10.71
2023-05-01T19:01:30.851Z,10.74
2023-05-01T19:05:32.927Z,10.82
2023-05-01T19:09:35.138Z,11.03
2023-05-01T19:13:37.366Z,11.10
2023-05-01T19:17:39.549Z,11.12
2023-05-01T19:21:41.693Z,11.16
2023-05-01T19:25:43.680Z,11.22
2023-05-01T19:29:45.700Z,11.24
2023-05-01T19:33:48.281Z,11.29
2023-05-01T19:37:58.404Z,11.30
2023-05-01T19:42:02.180Z,11.24
2023-05-01T19:46:04.719Z,11.23
2023-05-01T19:50:07.960Z,11.15
2023-05-01T19:54:10.004Z,11.07
2023-05-01T19:58:12.139Z,10.86
2023-05-01T20:02:14.212Z,10.70
2023-05-01T20:06:16.446Z,10.64
2023-05-01T20:10:18.244Z,10.62
2023-05-01T20:14:20.373Z,10.62
2023-05-01T20:18:22.336Z,10.48
2023-05-01T20:22:24.405Z,10.36
2023-05-01T20:26:26.635Z,10.30
2023-05-01T20:30:29.786Z,10.19
2023-05-01T20:34:32.518Z,10.12
2023-05-01T20:38:41.684Z,10.00
2023-05-01T20:42:43.598Z,9.98
2023-05-01T20:46:46.770Z,9.91
2023-05-01T20:50:49.784Z,9.67
2023-05-01T20:54:51.790Z,9.53
2023-05-01T20:58:54.421Z,9.44
2023-05-01T21:02:58.045Z,9.33
2023-05-01T21:07:00.135Z,9.19
2023-05-01T21:11:02.777Z,9.14
2023-05-01T21:15:05.458Z,9.10
2023-05-01T21:19:07.638Z,9.07
2023-05-01T21:23:09.616Z,9.07
2023-05-01T21:27:12.376Z,8.88
2023-05-01T21:31:15.940Z,8.73
2023-05-01T21:35:20.685Z,8.59
2023-05-01T21:39:24.716Z,8.32
2023-05-01T21:43:26.891Z,8.16
2023-05-01T21:47:29.606Z,8.03
2023-05-01T21:51:33.062Z,7.85
2023-05-01T21:55:35.131Z,7.58
2023-05-01T21:59:38.754Z,7.42
2023-05-01T22:03:41.694Z,7.20
2023-05-01T22:07:45.372Z,7.04
2023-05-01T22:11:47.335Z,6.91
2023-05-01T22:15:49.544Z,6.69
2023-05-01T22:19:52.051Z,6.67
2023-05-01T22:23:55.424Z,6.56
2023-05-01T22:27:57.836Z,6.40
2023-05-01T22:32:00.024Z,6.35
2023-05-01T22:36:02.074Z,6.19
2023-05-01T22:40:04.881Z,6.09
2023-05-01T22:44:07.367Z,5.99
2023-05-01T22:48:09.719Z,5.84
2023-05-01T22:52:11.763Z,5.80
2023-05-01T22:56:14.017Z,5.77
2023-05-01T23:00:16.818Z,5.74
2023-05-01T23:04:19.410Z,5.67
2023-05-01T23:08:21.677Z,5.64
2023-05-01T23:12:25.609Z,5.69
2023-05-01T23:16:28.142Z,5.69
2023-05-01T23:20:30.430Z,5.70
2023-05-01T23:24:41.678Z,5.62
2023-05-01T23:28:43.724Z,5.66
2023-05-01T23:32:46.089Z,5.70
2023-05-01T23:36:48.364Z,5.74
2023-05-01T23:40:50.862Z,5.98
2023-05-01T23:44:53.065Z,5.93
2023-05-01T23:48:55.124Z,5.92
2023-05-01T23:52:57.208Z,5.96
2023-05-01T23:56:59.845Z,6.26
